Pringle, SD (57773)

8:07 PM MST on December 08, 2016 (GMT -0700)
| | Change Station

Elev -9999 ft 0.00 °N, 0.00 °E | Updated 5 minutes ago

Clear
Clear
50 °F
Feels Like 50 °F
N
7
Wind Variable Wind from NNE
Gusts mph

Today
High -- | Low -- °F
--% Chance of Precip.
Yesterday
High -- | Low -- °F
Precip. -- in
Pressure 30.58 in
Visibility 10.0 miles
Clouds Clear
Dew Point 39 °F
Humidity 66%
Rainfall --
Snow Depth Not available.
7:15 AM 4:17 PM
Waxing Gibbous, 69% visible
METAR KCUT 090253Z AUTO 00000KT 10SM CLR M21/M24 A3019 RMK AO2 SLP356 T12111239 58013
Pressure 30.58 in
Visibility 10.0 miles
Clouds Clear
Dew Point 39 °F
Humidity 66%
Rainfall --
Snow Depth Not available.
7:15 AM 4:17 PM
Waxing Gibbous, 69% visible
METAR KCUT 090253Z AUTO 00000KT 10SM CLR M21/M24 A3019 RMK AO2 SLP356 T12111239 58013

10-Day Weather Forecast

Almanac

Astronomy

Dec. 08, 2016 Rise Set
Actual Time
Civil Twilight
Nautical Twilight
Astronomical Twilight
Moon
Length of Visible Light
Length of Day
Tomorrow will be .
, % of the Moon is Illuminated

Today's Extremes

State Highs State Lows

Community

WunderPhotos

Upload Photos

1,956,351 photos uploaded!

WunderBlog® & News

Nearby

Air Quality

  Air Quality AQ Index Pollutant
Not available.

Snow Depth

Station Depth Elevation

Earthquake Activity

City Distance Mag. Time & Date
Minimum magnitude displayed is 2.5.

Coastal Water Temperatures

Place Temperature

Stations

Nearby Weather Stations

Station Location Temp. Windchill Dew Point Humidity Wind Precip. Elev Updated Type
                   

Watches & Warnings

There are currently no watches in effect.